sensor_id;sensor_type;location;lat;lon;timestamp;temperature;humidity
947;DHT22;460;48.734;9.152;2024-03-25T00:00:14;4.50;99.90
947;DHT22;460;48.734;9.152;2024-03-25T00:02:42;4.40;99.90
947;DHT22;460;48.734;9.152;2024-03-25T00:05:09;4.40;99.90
947;DHT22;460;48.734;9.152;2024-03-25T00:07:36;4.30;99.90
947;DHT22;460;48.734;9.152;2024-03-25T00:10:02;4.40;99.90
947;DHT22;460;48.734;9.152;2024-03-25T00:12:29;4.40;99.90
947;DHT22;460;48.734;9.152;2024-03-25T00:14:55;4.40;99.90
947;DHT22;460;48.734;9.152;2024-03-25T00:17:21;4.30;99.90
947;DHT22;460;48.734;9.152;2024-03-25T00:19:47;4.20;99.90
947;DHT22;460;48.734;9.152;2024-03-25T00:22:17;4.40;99.90
947;DHT22;460;48.734;9.152;2024-03-25T00:24:43;4.40;99.90
947;DHT22;460;48.734;9.152;2024-03-25T00:27:10;4.40;99.90
947;DHT22;460;48.734;9.152;2024-03-25T00:29:36;4.20;99.90
947;DHT22;460;48.734;9.152;2024-03-25T00:32:03;4.30;99.90
947;DHT22;460;48.734;9.152;2024-03-25T00:34:29;4.30;99.90
947;DHT22;460;48.734;9.152;2024-03-25T00:36:56;4.20;99.90
947;DHT22;460;48.734;9.152;2024-03-25T00:39:23;4.20;99.90
947;DHT22;460;48.734;9.152;2024-03-25T00:41:51;4.20;99.90
947;DHT22;460;48.734;9.152;2024-03-25T00:44:17;4.30;99.90
947;DHT22;460;48.734;9.152;2024-03-25T00:46:44;4.30;99.90
947;DHT22;460;48.734;9.152;2024-03-25T00:49:10;4.20;99.90
947;DHT22;460;48.734;9.152;2024-03-25T00:51:37;4.10;99.90
947;DHT22;460;48.734;9.152;2024-03-25T00:54:03;4.10;99.90
947;DHT22;460;48.734;9.152;2024-03-25T00:56:31;4.10;99.90
947;DHT22;460;48.734;9.152;2024-03-25T00:58:57;4.10;99.90
947;DHT22;460;48.734;9.152;2024-03-25T01:01:28;4.10;99.90
947;DHT22;460;48.734;9.152;2024-03-25T01:03:53;4.00;99.90
947;DHT22;460;48.734;9.152;2024-03-25T01:06:20;4.10;99.90
947;DHT22;460;48.734;9.152;2024-03-25T01:08:46;4.10;99.90
947;DHT22;460;48.734;9.152;2024-03-25T01:11:13;3.90;99.90
947;DHT22;460;48.734;9.152;2024-03-25T01:13:40;3.90;99.90
947;DHT22;460;48.734;9.152;2024-03-25T01:16:08;3.90;99.90
947;DHT22;460;48.734;9.152;2024-03-25T01:18:33;4.00;99.90
947;DHT22;460;48.734;9.152;2024-03-25T01:21:00;3.90;99.90
947;DHT22;460;48.734;9.152;2024-03-25T01:23:26;4.00;99.90
947;DHT22;460;48.734;9.152;2024-03-25T01:25:53;4.00;99.90
947;DHT22;460;48.734;9.152;2024-03-25T01:28:19;3.90;99.90
947;DHT22;460;48.734;9.152;2024-03-25T01:30:47;3.90;99.90
947;DHT22;460;48.734;9.152;2024-03-25T01:33:13;4.00;99.90
947;DHT22;460;48.734;9.152;2024-03-25T01:35:39;3.90;99.90
947;DHT22;460;48.734;9.152;2024-03-25T01:38:05;3.90;99.90
947;DHT22;460;48.734;9.152;2024-03-25T01:40:33;3.90;99.90
947;DHT22;460;48.734;9.152;2024-03-25T01:43:00;3.90;99.90
947;DHT22;460;48.734;9.152;2024-03-25T01:45:31;3.80;99.90
947;DHT22;460;48.734;9.152;2024-03-25T01:48:00;3.80;99.90
947;DHT22;460;48.734;9.152;2024-03-25T01:50:28;3.80;99.90
947;DHT22;460;48.734;9.152;2024-03-25T01:52:55;3.80;99.90
947;DHT22;460;48.734;9.152;2024-03-25T01:55:26;3.80;99.90
947;DHT22;460;48.734;9.152;2024-03-25T01:57:53;3.80;99.90
947;DHT22;460;48.734;9.152;2024-03-25T02:00:20;3.80;99.90
947;DHT22;460;48.734;9.152;2024-03-25T02:02:47;3.80;99.90
947;DHT22;460;48.734;9.152;2024-03-25T02:05:15;3.80;99.90
947;DHT22;460;48.734;9.152;2024-03-25T02:07:41;3.80;99.90
947;DHT22;460;48.734;9.152;2024-03-25T02:10:09;3.80;99.90
947;DHT22;460;48.734;9.152;2024-03-25T02:12:36;3.80;99.90
947;DHT22;460;48.734;9.152;2024-03-25T02:15:05;3.80;99.90
947;DHT22;460;48.734;9.152;2024-03-25T02:17:33;3.80;99.90
947;DHT22;460;48.734;9.152;2024-03-25T02:20:00;3.90;99.90
947;DHT22;460;48.734;9.152;2024-03-25T02:22:30;3.90;99.90
947;DHT22;460;48.734;9.152;2024-03-25T02:24:57;3.90;99.90
947;DHT22;460;48.734;9.152;2024-03-25T02:27:25;3.80;99.90
947;DHT22;460;48.734;9.152;2024-03-25T02:29:53;3.90;99.90
947;DHT22;460;48.734;9.152;2024-03-25T02:32:19;3.90;99.90
947;DHT22;460;48.734;9.152;2024-03-25T02:34:50;3.90;99.90
947;DHT22;460;48.734;9.152;2024-03-25T02:37:17;4.00;99.90
947;DHT22;460;48.734;9.152;2024-03-25T02:39:45;4.00;99.90
947;DHT22;460;48.734;9.152;2024-03-25T02:42:12;4.10;99.90
947;DHT22;460;48.734;9.152;2024-03-25T02:44:41;4.00;99.90
947;DHT22;460;48.734;9.152;2024-03-25T02:47:10;4.00;99.90
947;DHT22;460;48.734;9.152;2024-03-25T02:49:38;4.10;99.90
947;DHT22;460;48.734;9.152;2024-03-25T02:52:05;4.10;99.90
947;DHT22;460;48.734;9.152;2024-03-25T02:54:33;4.10;99.90
947;DHT22;460;48.734;9.152;2024-03-25T02:57:01;4.10;99.90
947;DHT22;460;48.734;9.152;2024-03-25T02:59:28;4.10;99.90
947;DHT22;460;48.734;9.152;2024-03-25T03:01:56;4.10;99.90
947;DHT22;460;48.734;9.152;2024-03-25T03:04:26;4.10;99.90
947;DHT22;460;48.734;9.152;2024-03-25T03:06:53;4.10;99.90
947;DHT22;460;48.734;9.152;2024-03-25T03:09:20;4.10;99.90
947;DHT22;460;48.734;9.152;2024-03-25T03:11:48;4.10;99.90
947;DHT22;460;48.734;9.152;2024-03-25T03:14:16;4.10;99.90
947;DHT22;460;48.734;9.152;2024-03-25T03:16:42;4.10;99.90
947;DHT22;460;48.734;9.152;2024-03-25T03:19:11;4.10;99.90
947;DHT22;460;48.734;9.152;2024-03-25T03:21:37;4.20;99.90
947;DHT22;460;48.734;9.152;2024-03-25T03:24:05;4.10;99.90
947;DHT22;460;48.734;9.152;2024-03-25T03:26:31;4.10;99.90
947;DHT22;460;48.734;9.152;2024-03-25T03:28:58;4.10;99.90
947;DHT22;460;48.734;9.152;2024-03-25T03:31:27;4.10;99.90
947;DHT22;460;48.734;9.152;2024-03-25T03:33:55;4.10;99.90
947;DHT22;460;48.734;9.152;2024-03-25T03:36:23;4.10;99.90
947;DHT22;460;48.734;9.152;2024-03-25T03:38:51;4.10;99.90
947;DHT22;460;48.734;9.152;2024-03-25T03:41:18;4.00;99.90
947;DHT22;460;48.734;9.152;2024-03-25T03:43:46;3.90;99.90
947;DHT22;460;48.734;9.152;2024-03-25T03:46:13;3.90;99.90
947;DHT22;460;48.734;9.152;2024-03-25T03:48:40;3.90;99.90
947;DHT22;460;48.734;9.152;2024-03-25T03:51:07;3.90;99.90
947;DHT22;460;48.734;9.152;2024-03-25T03:53:35;3.90;99.90
947;DHT22;460;48.734;9.152;2024-03-25T03:56:02;3.90;99.90
947;DHT22;460;48.734;9.152;2024-03-25T03:58:29;3.80;99.90
947;DHT22;460;48.734;9.152;2024-03-25T04:00:55;3.80;99.90
947;DHT22;460;48.734;9.152;2024-03-25T04:03:22;4.00;99.90
947;DHT22;460;48.734;9.152;2024-03-25T04:05:48;3.90;99.90
947;DHT22;460;48.734;9.152;2024-03-25T04:08:15;4.00;99.90
947;DHT22;460;48.734;9.152;2024-03-25T04:10:44;4.00;99.90
947;DHT22;460;48.734;9.152;2024-03-25T04:13:12;4.00;99.90
947;DHT22;460;48.734;9.152;2024-03-25T04:15:38;4.00;99.90
947;DHT22;460;48.734;9.152;2024-03-25T04:18:06;4.00;99.90
947;DHT22;460;48.734;9.152;2024-03-25T04:20:36;4.10;99.90
947;DHT22;460;48.734;9.152;2024-03-25T04:23:03;4.00;99.90
947;DHT22;460;48.734;9.152;2024-03-25T04:25:30;4.00;99.90
947;DHT22;460;48.734;9.152;2024-03-25T04:28:00;4.10;99.90
947;DHT22;460;48.734;9.152;2024-03-25T04:30:26;3.90;99.90
947;DHT22;460;48.734;9.152;2024-03-25T04:32:53;3.90;99.90
947;DHT22;460;48.734;9.152;2024-03-25T04:35:19;3.90;99.90
947;DHT22;460;48.734;9.152;2024-03-25T04:37:45;3.80;99.90
947;DHT22;460;48.734;9.152;2024-03-25T04:40:12;3.90;99.90
947;DHT22;460;48.734;9.152;2024-03-25T04:42:38;3.90;99.90
947;DHT22;460;48.734;9.152;2024-03-25T04:45:06;3.90;99.90
947;DHT22;460;48.734;9.152;2024-03-25T04:47:32;4.00;99.90
947;DHT22;460;48.734;9.152;2024-03-25T04:49:58;3.90;99.90
947;DHT22;460;48.734;9.152;2024-03-25T04:52:24;4.00;99.90
947;DHT22;460;48.734;9.152;2024-03-25T04:54:50;4.00;99.90
947;DHT22;460;48.734;9.152;2024-03-25T04:57:16;4.00;99.90
947;DHT22;460;48.734;9.152;2024-03-25T04:59:42;4.00;99.90
947;DHT22;460;48.734;9.152;2024-03-25T05:02:09;4.00;99.90
947;DHT22;460;48.734;9.152;2024-03-25T05:04:35;3.90;99.90
947;DHT22;460;48.734;9.152;2024-03-25T05:07:00;3.90;99.90
947;DHT22;460;48.734;9.152;2024-03-25T05:09:26;3.90;99.90
947;DHT22;460;48.734;9.152;2024-03-25T05:11:52;3.90;99.90
947;DHT22;460;48.734;9.152;2024-03-25T05:14:18;3.80;99.90
947;DHT22;460;48.734;9.152;2024-03-25T05:16:44;3.90;99.90
947;DHT22;460;48.734;9.152;2024-03-25T05:19:11;3.90;99.90
947;DHT22;460;48.734;9.152;2024-03-25T05:21:37;3.90;99.90
947;DHT22;460;48.734;9.152;2024-03-25T05:24:03;3.90;99.90
947;DHT22;460;48.734;9.152;2024-03-25T05:26:29;4.00;99.90
947;DHT22;460;48.734;9.152;2024-03-25T05:28:56;4.10;99.90
947;DHT22;460;48.734;9.152;2024-03-25T05:31:22;4.10;99.90
947;DHT22;460;48.734;9.152;2024-03-25T05:33:48;4.20;99.90
947;DHT22;460;48.734;9.152;2024-03-25T05:36:15;4.10;99.90
947;DHT22;460;48.734;9.152;2024-03-25T05:38:41;4.10;99.90
947;DHT22;460;48.734;9.152;2024-03-25T05:41:08;4.10;99.90
947;DHT22;460;48.734;9.152;2024-03-25T05:43:33;4.10;99.90
947;DHT22;460;48.734;9.152;2024-03-25T05:45:59;4.10;99.90
947;DHT22;460;48.734;9.152;2024-03-25T05:48:25;4.20;99.90
947;DHT22;460;48.734;9.152;2024-03-25T05:50:59;4.20;99.90
947;DHT22;460;48.734;9.152;2024-03-25T05:53:27;4.20;99.90
947;DHT22;460;48.734;9.152;2024-03-25T05:55:53;4.20;99.90
947;DHT22;460;48.734;9.152;2024-03-25T05:58:19;4.20;99.90
947;DHT22;460;48.734;9.152;2024-03-25T06:00:47;4.30;99.90
947;DHT22;460;48.734;9.152;2024-03-25T06:03:13;4.30;99.90
947;DHT22;460;48.734;9.152;2024-03-25T06:05:38;4.30;99.90
947;DHT22;460;48.734;9.152;2024-03-25T06:08:05;4.30;99.90
947;DHT22;460;48.734;9.152;2024-03-25T06:10:36;4.20;99.90
947;DHT22;460;48.734;9.152;2024-03-25T06:13:02;4.20;99.90
947;DHT22;460;48.734;9.152;2024-03-25T06:15:28;4.20;99.90
947;DHT22;460;48.734;9.152;2024-03-25T06:17:54;4.30;99.90
947;DHT22;460;48.734;9.152;2024-03-25T06:20:20;4.30;99.90
947;DHT22;460;48.734;9.152;2024-03-25T06:22:46;4.40;99.90
947;DHT22;460;48.734;9.152;2024-03-25T06:25:12;4.50;99.90
947;DHT22;460;48.734;9.152;2024-03-25T06:27:39;4.40;99.90
947;DHT22;460;48.734;9.152;2024-03-25T06:30:07;4.50;99.90
947;DHT22;460;48.734;9.152;2024-03-25T06:32:51;4.60;99.90
947;DHT22;460;48.734;9.152;2024-03-25T06:35:35;4.60;99.90
947;DHT22;460;48.734;9.152;2024-03-25T06:38:01;4.60;99.90
947;DHT22;460;48.734;9.152;2024-03-25T06:40:27;4.60;99.90
947;DHT22;460;48.734;9.152;2024-03-25T06:42:54;4.70;99.90
947;DHT22;460;48.734;9.152;2024-03-25T06:45:20;4.80;99.90
947;DHT22;460;48.734;9.152;2024-03-25T06:47:46;4.80;99.90
947;DHT22;460;48.734;9.152;2024-03-25T06:50:12;4.70;99.90
947;DHT22;460;48.734;9.152;2024-03-25T06:52:38;4.60;99.90
947;DHT22;460;48.734;9.152;2024-03-25T06:55:04;4.50;99.90
947;DHT22;460;48.734;9.152;2024-03-25T06:57:30;4.50;99.90
947;DHT22;460;48.734;9.152;2024-03-25T06:59:57;4.40;99.90
947;DHT22;460;48.734;9.152;2024-03-25T07:02:23;4.50;99.90
947;DHT22;460;48.734;9.152;2024-03-25T07:04:49;4.40;99.90
947;DHT22;460;48.734;9.152;2024-03-25T07:07:15;4.50;99.90
947;DHT22;460;48.734;9.152;2024-03-25T07:09:41;4.40;99.90
947;DHT22;460;48.734;9.152;2024-03-25T07:12:07;4.40;99.90
947;DHT22;460;48.734;9.152;2024-03-25T07:14:33;4.50;99.90
947;DHT22;460;48.734;9.152;2024-03-25T07:17:00;4.60;99.90
947;DHT22;460;48.734;9.152;2024-03-25T07:19:26;4.80;99.90
947;DHT22;460;48.734;9.152;2024-03-25T07:21:52;4.90;99.90
947;DHT22;460;48.734;9.152;2024-03-25T07:24:18;5.00;99.90
947;DHT22;460;48.734;9.152;2024-03-25T07:26:44;5.00;99.90
947;DHT22;460;48.734;9.152;2024-03-25T07:29:10;5.00;99.90
947;DHT22;460;48.734;9.152;2024-03-25T07:31:36;5.10;99.90
947;DHT22;460;48.734;9.152;2024-03-25T07:34:03;5.20;99.90
947;DHT22;460;48.734;9.152;2024-03-25T07:36:29;5.40;99.90
947;DHT22;460;48.734;9.152;2024-03-25T07:38:55;5.40;99.90
947;DHT22;460;48.734;9.152;2024-03-25T07:41:20;5.40;99.90
947;DHT22;460;48.734;9.152;2024-03-25T07:43:46;5.50;99.90
947;DHT22;460;48.734;9.152;2024-03-25T07:46:12;5.60;99.90
947;DHT22;460;48.734;9.152;2024-03-25T07:48:38;5.60;99.90
947;DHT22;460;48.734;9.152;2024-03-25T07:51:05;5.80;99.90
947;DHT22;460;48.734;9.152;2024-03-25T07:53:31;6.00;99.90
947;DHT22;460;48.734;9.152;2024-03-25T07:55:57;6.00;99.90
947;DHT22;460;48.734;9.152;2024-03-25T07:58:23;6.10;99.40
947;DHT22;460;48.734;9.152;2024-03-25T08:00:49;6.20;99.90
947;DHT22;460;48.734;9.152;2024-03-25T08:03:14;6.30;99.90
947;DHT22;460;48.734;9.152;2024-03-25T08:05:40;6.40;99.30
947;DHT22;460;48.734;9.152;2024-03-25T08:08:08;6.40;99.00
947;DHT22;460;48.734;9.152;2024-03-25T08:10:34;6.50;98.20
947;DHT22;460;48.734;9.152;2024-03-25T08:13:00;6.70;97.80
947;DHT22;460;48.734;9.152;2024-03-25T08:15:26;6.80;97.70
947;DHT22;460;48.734;9.152;2024-03-25T08:17:52;6.80;96.70
947;DHT22;460;48.734;9.152;2024-03-25T08:20:17;6.80;94.80
947;DHT22;460;48.734;9.152;2024-03-25T08:22:43;6.90;94.80
947;DHT22;460;48.734;9.152;2024-03-25T08:25:11;7.00;95.60
947;DHT22;460;48.734;9.152;2024-03-25T08:27:36;7.00;94.20
947;DHT22;460;48.734;9.152;2024-03-25T08:30:03;7.00;94.00
947;DHT22;460;48.734;9.152;2024-03-25T08:32:29;6.90;93.70
947;DHT22;460;48.734;9.152;2024-03-25T08:34:55;6.90;94.20
947;DHT22;460;48.734;9.152;2024-03-25T08:37:21;7.00;94.50
947;DHT22;460;48.734;9.152;2024-03-25T08:39:47;7.00;94.40
947;DHT22;460;48.734;9.152;2024-03-25T08:42:14;7.10;94.60
947;DHT22;460;48.734;9.152;2024-03-25T08:44:40;7.00;94.30
947;DHT22;460;48.734;9.152;2024-03-25T08:47:06;7.00;94.10
947;DHT22;460;48.734;9.152;2024-03-25T08:49:32;7.10;93.40
947;DHT22;460;48.734;9.152;2024-03-25T08:51:57;7.10;93.20
947;DHT22;460;48.734;9.152;2024-03-25T08:54:23;7.00;93.20
947;DHT22;460;48.734;9.152;2024-03-25T08:56:49;6.90;92.80
947;DHT22;460;48.734;9.152;2024-03-25T08:59:16;7.00;92.30
947;DHT22;460;48.734;9.152;2024-03-25T09:01:42;7.30;93.30
947;DHT22;460;48.734;9.152;2024-03-25T09:04:08;7.50;93.80
947;DHT22;460;48.734;9.152;2024-03-25T09:06:34;7.70;92.70
947;DHT22;460;48.734;9.152;2024-03-25T09:09:00;7.50;91.30
947;DHT22;460;48.734;9.152;2024-03-25T09:11:44;7.70;91.50
947;DHT22;460;48.734;9.152;2024-03-25T09:14:10;8.00;92.50
947;DHT22;460;48.734;9.152;2024-03-25T09:16:37;8.40;91.70
947;DHT22;460;48.734;9.152;2024-03-25T09:19:03;8.60;92.10
947;DHT22;460;48.734;9.152;2024-03-25T09:21:29;8.80;92.40
947;DHT22;460;48.734;9.152;2024-03-25T09:23:55;9.00;91.70
947;DHT22;460;48.734;9.152;2024-03-25T09:26:20;9.00;90.50
947;DHT22;460;48.734;9.152;2024-03-25T09:28:46;9.10;91.10
947;DHT22;460;48.734;9.152;2024-03-25T09:31:12;9.30;91.20
947;DHT22;460;48.734;9.152;2024-03-25T09:33:39;9.30;86.80
947;DHT22;460;48.734;9.152;2024-03-25T09:36:06;9.40;86.40
947;DHT22;460;48.734;9.152;2024-03-25T09:38:31;9.30;84.60
947;DHT22;460;48.734;9.152;2024-03-25T09:40:58;9.30;83.60
947;DHT22;460;48.734;9.152;2024-03-25T09:43:25;9.20;84.80
947;DHT22;460;48.734;9.152;2024-03-25T09:45:54;9.10;80.50
947;DHT22;460;48.734;9.152;2024-03-25T09:48:21;8.90;83.50
947;DHT22;460;48.734;9.152;2024-03-25T09:50:49;8.70;81.70
947;DHT22;460;48.734;9.152;2024-03-25T09:53:16;8.70;81.50
947;DHT22;460;48.734;9.152;2024-03-25T09:55:42;8.60;80.40
947;DHT22;460;48.734;9.152;2024-03-25T09:58:08;8.60;82.50
947;DHT22;460;48.734;9.152;2024-03-25T10:00:37;8.50;79.60
947;DHT22;460;48.734;9.152;2024-03-25T10:03:05;8.60;79.20
947;DHT22;460;48.734;9.152;2024-03-25T10:05:31;8.70;82.10
947;DHT22;460;48.734;9.152;2024-03-25T10:07:59;8.60;80.60
947;DHT22;460;48.734;9.152;2024-03-25T10:10:30;8.50;79.60
947;DHT22;460;48.734;9.152;2024-03-25T10:12:56;8.40;79.00
947;DHT22;460;48.734;9.152;2024-03-25T10:15:28;8.70;81.80
947;DHT22;460;48.734;9.152;2024-03-25T10:17:57;9.00;80.80
947;DHT22;460;48.734;9.152;2024-03-25T10:20:23;9.00;81.30
947;DHT22;460;48.734;9.152;2024-03-25T10:22:49;9.00;80.50
947;DHT22;460;48.734;9.152;2024-03-25T10:25:28;8.90;81.40
947;DHT22;460;48.734;9.152;2024-03-25T10:27:57;8.90;82.50
947;DHT22;460;48.734;9.152;2024-03-25T10:30:26;8.80;84.30
947;DHT22;460;48.734;9.152;2024-03-25T10:33:04;8.80;83.50
947;DHT22;460;48.734;9.152;2024-03-25T10:35:31;8.70;80.10
947;DHT22;460;48.734;9.152;2024-03-25T10:37:59;8.70;80.80
947;DHT22;460;48.734;9.152;2024-03-25T10:40:29;8.80;82.30
947;DHT22;460;48.734;9.152;2024-03-25T10:43:03;8.80;80.10
947;DHT22;460;48.734;9.152;2024-03-25T10:45:30;8.70;79.20
947;DHT22;460;48.734;9.152;2024-03-25T10:47:58;8.80;81.30
947;DHT22;460;48.734;9.152;2024-03-25T10:50:28;8.80;82.80
947;DHT22;460;48.734;9.152;2024-03-25T10:52:54;8.90;80.10
947;DHT22;460;48.734;9.152;2024-03-25T10:55:31;9.10;79.90
947;DHT22;460;48.734;9.152;2024-03-25T10:58:01;9.20;80.90
947;DHT22;460;48.734;9.152;2024-03-25T11:00:28;9.40;82.40
947;DHT22;460;48.734;9.152;2024-03-25T11:02:54;9.60;80.70
947;DHT22;460;48.734;9.152;2024-03-25T11:05:21;9.90;78.20
947;DHT22;460;48.734;9.152;2024-03-25T11:07:47;10.10;77.30
947;DHT22;460;48.734;9.152;2024-03-25T11:10:15;10.20;76.80
947;DHT22;460;48.734;9.152;2024-03-25T11:12:49;10.30;76.10
947;DHT22;460;48.734;9.152;2024-03-25T11:15:16;10.20;74.90
947;DHT22;460;48.734;9.152;2024-03-25T11:17:48;10.10;75.50
947;DHT22;460;48.734;9.152;2024-03-25T11:20:16;10.10;76.20
947;DHT22;460;48.734;9.152;2024-03-25T11:22:49;9.90;76.30
947;DHT22;460;48.734;9.152;2024-03-25T11:25:15;9.90;78.30
947;DHT22;460;48.734;9.152;2024-03-25T11:27:43;10.00;76.30
947;DHT22;460;48.734;9.152;2024-03-25T11:30:11;10.00;76.20
947;DHT22;460;48.734;9.152;2024-03-25T11:32:51;9.90;78.60
947;DHT22;460;48.734;9.152;2024-03-25T11:35:20;10.00;78.80
947;DHT22;460;48.734;9.152;2024-03-25T11:37:47;10.10;79.00
947;DHT22;460;48.734;9.152;2024-03-25T11:40:13;10.20;79.40
947;DHT22;460;48.734;9.152;2024-03-25T11:42:45;10.30;77.90
947;DHT22;460;48.734;9.152;2024-03-25T11:45:14;10.40;75.80
947;DHT22;460;48.734;9.152;2024-03-25T11:47:42;10.30;77.70
947;DHT22;460;48.734;9.152;2024-03-25T11:50:14;10.30;75.90
947;DHT22;460;48.734;9.152;2024-03-25T11:52:40;10.30;74.10
947;DHT22;460;48.734;9.152;2024-03-25T11:55:07;10.40;75.10
947;DHT22;460;48.734;9.152;2024-03-25T11:57:34;10.40;73.80
947;DHT22;460;48.734;9.152;2024-03-25T12:00:00;10.50;73.80
947;DHT22;460;48.734;9.152;2024-03-25T12:02:26;10.50;74.00
947;DHT22;460;48.734;9.152;2024-03-25T12:04:52;10.30;70.70
947;DHT22;460;48.734;9.152;2024-03-25T12:07:19;10.50;73.00
947;DHT22;460;48.734;9.152;2024-03-25T12:09:45;10.40;71.60
947;DHT22;460;48.734;9.152;2024-03-25T12:12:29;10.50;71.60
947;DHT22;460;48.734;9.152;2024-03-25T12:14:56;10.50;71.90
947;DHT22;460;48.734;9.152;2024-03-25T12:17:23;10.60;72.00
947;DHT22;460;48.734;9.152;2024-03-25T12:19:59;10.50;70.20
947;DHT22;460;48.734;9.152;2024-03-25T12:22:26;10.50;69.90
947;DHT22;460;48.734;9.152;2024-03-25T12:24:52;10.40;69.70
947;DHT22;460;48.734;9.152;2024-03-25T12:27:18;10.50;72.40
947;DHT22;460;48.734;9.152;2024-03-25T12:29:44;10.60;72.70
947;DHT22;460;48.734;9.152;2024-03-25T12:32:10;10.80;72.60
947;DHT22;460;48.734;9.152;2024-03-25T12:34:36;10.90;70.50
947;DHT22;460;48.734;9.152;2024-03-25T12:37:05;11.10;72.50
947;DHT22;460;48.734;9.152;2024-03-25T12:39:32;11.30;69.30
947;DHT22;460;48.734;9.152;2024-03-25T12:41:58;11.40;67.80
947;DHT22;460;48.734;9.152;2024-03-25T12:44:24;11.30;67.50
947;DHT22;460;48.734;9.152;2024-03-25T12:46:50;11.10;66.10
947;DHT22;460;48.734;9.152;2024-03-25T12:49:16;11.00;66.40
947;DHT22;460;48.734;9.152;2024-03-25T12:51:45;10.90;67.10
947;DHT22;460;48.734;9.152;2024-03-25T12:54:14;10.90;64.70
947;DHT22;460;48.734;9.152;2024-03-25T12:56:44;10.90;64.40
947;DHT22;460;48.734;9.152;2024-03-25T12:59:12;10.90;62.00
947;DHT22;460;48.734;9.152;2024-03-25T13:01:50;10.90;64.20
947;DHT22;460;48.734;9.152;2024-03-25T13:04:17;11.00;59.90
947;DHT22;460;48.734;9.152;2024-03-25T13:06:46;11.00;59.80
947;DHT22;460;48.734;9.152;2024-03-25T13:09:12;11.00;62.10
947;DHT22;460;48.734;9.152;2024-03-25T13:11:38;11.00;61.40
947;DHT22;460;48.734;9.152;2024-03-25T13:14:11;10.90;62.60
947;DHT22;460;48.734;9.152;2024-03-25T13:16:40;10.90;62.50
947;DHT22;460;48.734;9.152;2024-03-25T13:19:06;10.90;61.80
947;DHT22;460;48.734;9.152;2024-03-25T13:21:32;11.00;62.50
947;DHT22;460;48.734;9.152;2024-03-25T13:24:10;11.00;62.10
947;DHT22;460;48.734;9.152;2024-03-25T13:26:36;11.10;61.80
947;DHT22;460;48.734;9.152;2024-03-25T13:29:12;11.20;61.40
947;DHT22;460;48.734;9.152;2024-03-25T13:31:41;11.20;62.00
947;DHT22;460;48.734;9.152;2024-03-25T13:34:07;11.20;61.90
947;DHT22;460;48.734;9.152;2024-03-25T13:36:33;11.20;61.30
947;DHT22;460;48.734;9.152;2024-03-25T13:38:58;11.20;62.70
947;DHT22;460;48.734;9.152;2024-03-25T13:41:24;11.30;63.50
947;DHT22;460;48.734;9.152;2024-03-25T13:43:52;11.40;63.70
947;DHT22;460;48.734;9.152;2024-03-25T13:46:19;11.60;63.40
947;DHT22;460;48.734;9.152;2024-03-25T13:48:48;11.60;61.90
947;DHT22;460;48.734;9.152;2024-03-25T13:51:15;11.60;62.60
947;DHT22;460;48.734;9.152;2024-03-25T13:54:00;11.70;62.70
947;DHT22;460;48.734;9.152;2024-03-25T13:56:26;11.70;62.00
947;DHT22;460;48.734;9.152;2024-03-25T13:58:54;11.70;62.10
947;DHT22;460;48.734;9.152;2024-03-25T14:01:23;11.90;63.10
947;DHT22;460;48.734;9.152;2024-03-25T14:03:49;12.60;60.50
947;DHT22;460;48.734;9.152;2024-03-25T14:06:19;13.80;58.90
947;DHT22;460;48.734;9.152;2024-03-25T14:08:48;15.70;58.90
947;DHT22;460;48.734;9.152;2024-03-25T14:11:19;17.50;56.40
947;DHT22;460;48.734;9.152;2024-03-25T14:13:45;18.70;53.40
947;DHT22;460;48.734;9.152;2024-03-25T14:16:11;19.40;53.10
947;DHT22;460;48.734;9.152;2024-03-25T14:18:40;20.30;53.40
947;DHT22;460;48.734;9.152;2024-03-25T14:21:06;21.10;51.10
947;DHT22;460;48.734;9.152;2024-03-25T14:23:31;21.80;49.50
947;DHT22;460;48.734;9.152;2024-03-25T14:25:57;22.20;48.10
947;DHT22;460;48.734;9.152;2024-03-25T14:28:25;21.80;45.70
947;DHT22;460;48.734;9.152;2024-03-25T14:30:54;20.00;45.40
947;DHT22;460;48.734;9.152;2024-03-25T14:33:20;18.70;46.70
947;DHT22;460;48.734;9.152;2024-03-25T14:35:47;17.70;47.40
947;DHT22;460;48.734;9.152;2024-03-25T14:38:18;16.70;48.30
947;DHT22;460;48.734;9.152;2024-03-25T14:40:53;16.30;49.40
947;DHT22;460;48.734;9.152;2024-03-25T14:43:23;16.40;51.30
947;DHT22;460;48.734;9.152;2024-03-25T14:45:51;17.00;50.20
947;DHT22;460;48.734;9.152;2024-03-25T14:48:19;18.00;50.50
947;DHT22;460;48.734;9.152;2024-03-25T14:50:46;18.70;49.50
947;DHT22;460;48.734;9.152;2024-03-25T14:53:12;19.70;49.00
947;DHT22;460;48.734;9.152;2024-03-25T14:55:41;20.30;48.20
947;DHT22;460;48.734;9.152;2024-03-25T14:58:09;20.30;46.40
947;DHT22;460;48.734;9.152;2024-03-25T15:00:38;20.40;46.00
947;DHT22;460;48.734;9.152;2024-03-25T15:03:10;19.00;47.30
947;DHT22;460;48.734;9.152;2024-03-25T15:05:39;19.50;47.70
947;DHT22;460;48.734;9.152;2024-03-25T15:08:06;19.80;46.00
947;DHT22;460;48.734;9.152;2024-03-25T15:10:34;20.00;46.20
947;DHT22;460;48.734;9.152;2024-03-25T15:13:00;19.90;45.60
947;DHT22;460;48.734;9.152;2024-03-25T15:15:30;19.70;46.60
947;DHT22;460;48.734;9.152;2024-03-25T15:17:56;19.60;46.10
947;DHT22;460;48.734;9.152;2024-03-25T15:20:29;19.40;45.20
947;DHT22;460;48.734;9.152;2024-03-25T15:22:55;19.10;45.70
947;DHT22;460;48.734;9.152;2024-03-25T15:25:22;18.90;45.80
947;DHT22;460;48.734;9.152;2024-03-25T15:27:54;18.70;45.50
947;DHT22;460;48.734;9.152;2024-03-25T15:30:28;18.40;45.80
947;DHT22;460;48.734;9.152;2024-03-25T15:32:54;17.90;47.50
947;DHT22;460;48.734;9.152;2024-03-25T15:35:23;17.70;47.10
947;DHT22;460;48.734;9.152;2024-03-25T15:37:55;17.40;47.70
947;DHT22;460;48.734;9.152;2024-03-25T15:40:23;17.30;47.00
947;DHT22;460;48.734;9.152;2024-03-25T15:42:58;17.40;46.60
947;DHT22;460;48.734;9.152;2024-03-25T15:45:26;17.50;47.00
947;DHT22;460;48.734;9.152;2024-03-25T15:47:52;17.50;46.50
947;DHT22;460;48.734;9.152;2024-03-25T15:50:26;17.60;46.50
947;DHT22;460;48.734;9.152;2024-03-25T15:52:55;17.60;46.80
947;DHT22;460;48.734;9.152;2024-03-25T15:55:22;17.20;45.80
947;DHT22;460;48.734;9.152;2024-03-25T15:57:50;16.80;46.90
947;DHT22;460;48.734;9.152;2024-03-25T16:00:16;17.20;47.10
947;DHT22;460;48.734;9.152;2024-03-25T16:02:42;17.70;45.60
947;DHT22;460;48.734;9.152;2024-03-25T16:05:08;17.80;44.60
947;DHT22;460;48.734;9.152;2024-03-25T16:07:34;17.80;44.80
947;DHT22;460;48.734;9.152;2024-03-25T16:10:00;17.20;43.80
947;DHT22;460;48.734;9.152;2024-03-25T16:12:28;16.40;44.50
947;DHT22;460;48.734;9.152;2024-03-25T16:14:55;15.60;45.80
947;DHT22;460;48.734;9.152;2024-03-25T16:17:21;15.10;46.70
947;DHT22;460;48.734;9.152;2024-03-25T16:19:49;14.90;46.50
947;DHT22;460;48.734;9.152;2024-03-25T16:22:15;14.60;47.20
947;DHT22;460;48.734;9.152;2024-03-25T16:24:41;14.60;47.70
947;DHT22;460;48.734;9.152;2024-03-25T16:27:07;14.80;45.80
947;DHT22;460;48.734;9.152;2024-03-25T16:29:33;14.30;46.10
947;DHT22;460;48.734;9.152;2024-03-25T16:32:00;13.90;45.40
947;DHT22;460;48.734;9.152;2024-03-25T16:34:26;13.60;45.90
947;DHT22;460;48.734;9.152;2024-03-25T16:36:52;13.20;46.40
947;DHT22;460;48.734;9.152;2024-03-25T16:39:18;13.00;45.10
947;DHT22;460;48.734;9.152;2024-03-25T16:41:44;12.70;45.60
947;DHT22;460;48.734;9.152;2024-03-25T16:44:09;12.50;46.20
947;DHT22;460;48.734;9.152;2024-03-25T16:46:35;12.40;46.80